Terminal Aerodrome Forecast
Issued by NWS

Home | Current Version | Previous Version | Text Only | Print | Product List | Glossary On
Versions: 1 2 3 4 5 6 7 8 9 10 11 12 13 14
000
FTUS43 KMQT 232300
TAFSAW
TAF
KSAW 232325Z 2400/2424 11006KT P6SM BKN200
     FM241200 14012KT P6SM OVC080
     FM241900 13009KT P6SM -RA OVC025
      TEMPO 2419/2422 3SM -RASN BR OVC015
     FM242200 12010KT 3SM -SN OVC012
      AMD LTD TO CLD VIS AND WIND 2402/2410=

USA.gov is the U.S. government's official web portal to all federal, state and local government web resources and services.